createdAt,value
2018-03-24T00:00:16.641Z,98779.02
2018-03-24T00:02:45.047Z,98781.91
2018-03-24T00:05:13.453Z,98779.70
2018-03-24T00:07:41.917Z,98780.00
2018-03-24T00:10:10.326Z,98778.78
2018-03-24T00:12:38.738Z,98777.18
2018-03-24T00:15:07.201Z,98779.89
2018-03-24T00:17:35.602Z,98771.98
2018-03-24T00:20:04.037Z,98769.39
2018-03-24T00:22:32.497Z,98773.36
2018-03-24T00:25:00.906Z,98769.60
2018-03-24T00:27:29.321Z,98768.55
2018-03-24T00:29:57.781Z,98776.53
2018-03-24T00:32:26.190Z,98775.61
2018-03-24T00:34:54.598Z,98777.00
2018-03-24T00:37:23.046Z,98778.27
2018-03-24T00:39:51.457Z,98777.45
2018-03-24T00:42:19.891Z,98779.42
2018-03-24T00:44:48.362Z,98778.01
2018-03-24T00:47:16.770Z,98777.26
2018-03-24T00:49:45.178Z,98783.23
2018-03-24T00:52:13.649Z,98778.20
2018-03-24T00:54:42.062Z,98776.25
2018-03-24T00:57:10.481Z,98774.78
2018-03-24T00:59:38.941Z,98778.42
2018-03-24T01:02:07.366Z,98775.48
2018-03-24T01:04:35.789Z,98778.41
2018-03-24T01:07:04.269Z,98768.16
2018-03-24T01:09:32.689Z,98773.70
2018-03-24T01:12:01.130Z,98767.87
2018-03-24T01:14:29.802Z,98773.17
2018-03-24T01:16:58.214Z,98767.64
2018-03-24T01:19:26.617Z,98767.21
2018-03-24T01:21:55.086Z,98768.63
2018-03-24T01:24:23.501Z,98769.95
2018-03-24T01:26:51.906Z,98765.03
2018-03-24T01:29:20.457Z,98765.20
2018-03-24T01:31:48.866Z,98760.47
2018-03-24T01:34:17.273Z,98764.68
2018-03-24T01:36:45.738Z,98757.80
2018-03-24T01:39:14.146Z,98759.20
2018-03-24T01:41:42.554Z,98758.05
2018-03-24T01:44:11.005Z,98755.48
2018-03-24T01:46:39.421Z,98759.70
2018-03-24T01:49:07.832Z,98755.20
2018-03-24T01:51:36.303Z,98756.88
2018-03-24T01:54:04.742Z,98764.41
2018-03-24T01:56:33.154Z,98760.74
2018-03-24T01:59:01.629Z,98758.55
2018-03-24T02:01:30.048Z,98756.01
2018-03-24T02:03:58.462Z,98756.11
2018-03-24T02:06:26.917Z,98747.97
2018-03-24T02:08:55.327Z,98749.94
2018-03-24T02:11:23.749Z,98743.75
2018-03-24T02:13:52.210Z,98739.83
2018-03-24T02:16:20.613Z,98742.48
2018-03-24T02:18:49.018Z,98745.64
2018-03-24T02:21:28.201Z,98738.97
2018-03-24T02:23:56.610Z,98734.94
2018-03-24T02:26:25.044Z,98742.87
2018-03-24T02:28:53.498Z,98734.41
2018-03-24T02:31:21.898Z,98731.45
2018-03-24T02:33:50.310Z,98736.53
2018-03-24T02:36:18.758Z,98733.43
2018-03-24T02:38:47.169Z,98732.11
2018-03-24T02:41:15.574Z,98734.37
2018-03-24T02:43:44.042Z,98735.04
2018-03-24T02:46:12.450Z,98737.91
2018-03-24T02:48:40.865Z,98737.06
2018-03-24T02:51:09.326Z,98733.95
2018-03-24T02:53:37.731Z,98730.09
2018-03-24T02:56:06.150Z,98729.57
2018-03-24T02:58:34.607Z,98727.71
2018-03-24T03:01:03.034Z,98730.66
2018-03-24T03:03:31.450Z,98733.55
2018-03-24T03:05:59.915Z,98736.95
2018-03-24T03:08:28.325Z,98731.87
2018-03-24T03:10:56.734Z,98734.98
2018-03-24T03:13:25.188Z,98737.58
2018-03-24T03:15:53.598Z,98738.55
2018-03-24T03:18:22.008Z,98737.80
2018-03-24T03:20:50.550Z,98731.17
2018-03-24T03:23:18.958Z,98736.66
2018-03-24T03:25:47.365Z,98735.67
2018-03-24T03:28:15.833Z,98737.22
2018-03-24T03:33:49.353Z,98735.44
2018-03-24T03:36:17.758Z,98740.54
2018-03-24T03:38:46.166Z,98742.28
2018-03-24T03:41:14.908Z,98743.10
2018-03-24T03:43:43.325Z,98745.75
2018-03-24T03:46:11.909Z,98742.10
2018-03-24T03:48:40.361Z,98740.58
2018-03-24T03:51:08.769Z,98742.82
2018-03-24T03:53:37.173Z,98746.45
2018-03-24T03:56:05.629Z,98749.80
2018-03-24T03:58:34.048Z,98742.30
2018-03-24T04:01:02.454Z,98743.21
2018-03-24T04:03:30.901Z,98753.23
2018-03-24T04:05:59.314Z,98747.58
2018-03-24T04:08:27.717Z,98741.11
2018-03-24T04:10:56.162Z,98750.23
2018-03-24T04:13:24.573Z,98751.53
2018-03-24T04:15:52.987Z,98746.11
2018-03-24T04:18:21.437Z,98754.73
2018-03-24T04:20:49.841Z,98757.84
2018-03-24T04:23:18.249Z,98756.47
2018-03-24T04:25:46.712Z,98754.78
2018-03-24T04:28:15.117Z,98750.78
2018-03-24T04:30:43.525Z,98749.23
2018-03-24T04:33:11.970Z,98748.61
2018-03-24T04:35:40.382Z,98753.84
2018-03-24T04:38:08.798Z,98755.23
2018-03-24T04:40:37.262Z,98756.38
2018-03-24T04:43:05.666Z,98755.31
2018-03-24T04:45:34.074Z,98757.98
2018-03-24T04:48:02.529Z,98755.31
2018-03-24T04:50:30.964Z,98757.62
2018-03-24T04:52:59.378Z,98751.54
2018-03-24T04:55:27.834Z,98758.37
2018-03-24T04:57:56.260Z,98748.34
2018-03-24T05:00:24.678Z,98750.30
2018-03-24T05:02:53.129Z,98752.41
2018-03-24T05:05:21.534Z,98749.66
2018-03-24T05:07:49.939Z,98749.50
2018-03-24T05:10:18.402Z,98748.50
2018-03-24T05:12:46.818Z,98744.87
2018-03-24T05:15:15.226Z,98743.61
2018-03-24T05:17:43.683Z,98752.55
2018-03-24T05:20:12.106Z,98754.35
2018-03-24T05:22:40.523Z,98757.05
2018-03-24T05:25:09.001Z,98755.22
2018-03-24T05:27:37.406Z,98753.09
2018-03-24T05:30:05.833Z,98753.50
2018-03-24T05:32:34.294Z,98759.47
2018-03-24T05:35:02.706Z,98759.59
2018-03-24T05:37:31.115Z,98762.76
2018-03-24T05:39:59.565Z,98761.18
2018-03-24T05:42:27.973Z,98760.63
2018-03-24T05:44:56.378Z,98773.39
2018-03-24T05:47:24.827Z,98770.16
2018-03-24T05:49:53.233Z,98767.80
2018-03-24T05:52:21.638Z,98777.14
2018-03-24T05:54:50.090Z,98772.81
2018-03-24T05:57:18.490Z,98778.67
2018-03-24T05:59:46.894Z,98777.00
2018-03-24T06:02:15.621Z,98773.92
2018-03-24T06:04:44.025Z,98782.28
2018-03-24T06:07:12.430Z,98780.30
2018-03-24T06:09:40.902Z,98787.42
2018-03-24T06:12:09.309Z,98786.96
2018-03-24T06:14:37.725Z,98785.95
2018-03-24T06:17:06.174Z,98782.39
2018-03-24T06:19:34.574Z,98790.62
2018-03-24T06:22:03.031Z,98788.92
2018-03-24T06:24:31.478Z,98789.61
2018-03-24T06:26:59.890Z,98795.13
2018-03-24T06:29:28.293Z,98792.98
2018-03-24T06:31:56.758Z,98793.20
2018-03-24T06:34:25.215Z,98795.77
2018-03-24T06:36:58.212Z,98793.56
2018-03-24T06:39:26.651Z,98800.19
2018-03-24T06:41:55.061Z,98795.41
2018-03-24T06:44:23.514Z,98793.66
2018-03-24T06:46:51.928Z,98791.80
2018-03-24T06:49:20.336Z,98792.07
2018-03-24T06:51:48.781Z,98799.84
2018-03-24T06:54:17.186Z,98799.14
2018-03-24T06:56:45.609Z,98806.45
2018-03-24T06:59:14.179Z,98808.23
2018-03-24T07:01:42.590Z,98798.72
2018-03-24T07:04:10.993Z,98805.95
2018-03-24T07:06:39.544Z,98798.03
2018-03-24T07:09:08.122Z,98808.08
2018-03-24T07:11:36.534Z,98810.09
2018-03-24T07:14:04.998Z,98806.72
2018-03-24T07:16:33.412Z,98805.91
2018-03-24T07:19:01.850Z,98808.71
2018-03-24T07:21:30.319Z,98814.44
2018-03-24T07:23:58.725Z,98818.23
2018-03-24T07:26:27.126Z,98816.06
2018-03-24T07:28:55.617Z,98814.45
2018-03-24T07:31:24.030Z,98817.03
2018-03-24T07:33:52.438Z,98821.48
2018-03-24T07:36:20.901Z,98823.69
2018-03-24T07:38:49.310Z,98820.83
2018-03-24T07:41:17.730Z,98820.48
2018-03-24T07:43:46.197Z,98819.58
2018-03-24T07:46:14.607Z,98815.31
2018-03-24T07:48:43.018Z,98823.53
2018-03-24T07:51:11.465Z,98823.22
2018-03-24T07:53:39.869Z,98822.95
2018-03-24T07:56:08.274Z,98828.38
2018-03-24T07:58:36.733Z,98829.88
2018-03-24T08:01:05.162Z,98833.77
2018-03-24T08:03:34.579Z,98834.29
2018-03-24T08:06:03.039Z,98839.48
2018-03-24T08:08:31.446Z,98845.38
2018-03-24T08:10:59.854Z,98839.41
2018-03-24T08:13:28.322Z,98840.56
2018-03-24T08:15:56.731Z,98841.17
2018-03-24T08:18:25.137Z,98842.91
2018-03-24T08:20:53.590Z,98837.56
2018-03-24T08:23:21.998Z,98837.58
2018-03-24T08:25:50.410Z,98835.41
2018-03-24T08:28:18.866Z,98840.73
2018-03-24T08:30:47.273Z,98848.12
2018-03-24T08:33:15.689Z,98838.70
2018-03-24T08:35:44.146Z,98842.55
2018-03-24T08:38:12.549Z,98844.80
2018-03-24T08:40:40.958Z,98839.69
2018-03-24T08:43:09.417Z,98847.66
2018-03-24T08:45:37.829Z,98851.95
2018-03-24T08:48:06.248Z,98851.55
2018-03-24T08:50:34.705Z,98847.52
2018-03-24T08:53:03.114Z,98853.58
2018-03-24T08:55:31.518Z,98853.23
2018-03-24T08:57:59.994Z,98858.05
2018-03-24T09:00:28.426Z,98854.02
2018-03-24T09:02:56.826Z,98853.48
2018-03-24T09:05:25.289Z,98855.45
2018-03-24T09:07:53.699Z,98850.87
2018-03-24T09:10:22.110Z,98855.70
2018-03-24T09:12:50.566Z,98851.59
2018-03-24T09:15:18.973Z,98855.75
2018-03-24T09:17:47.389Z,98850.78
2018-03-24T09:20:15.845Z,98856.70
2018-03-24T09:22:44.249Z,98855.93
2018-03-24T09:25:12.654Z,98863.51
2018-03-24T09:27:41.123Z,98856.81
2018-03-24T09:30:09.530Z,98861.53
2018-03-24T09:32:37.942Z,98855.80
2018-03-24T09:35:06.414Z,98852.95
2018-03-24T09:37:34.829Z,98851.84
2018-03-24T09:40:03.250Z,98850.61
2018-03-24T09:42:31.706Z,98846.56
2018-03-24T09:45:00.109Z,98855.88
2018-03-24T09:47:28.545Z,98855.88
2018-03-24T09:49:56.989Z,98856.64
2018-03-24T09:52:25.397Z,98853.23
2018-03-24T09:54:53.802Z,98862.66
2018-03-24T09:57:22.254Z,98861.80
2018-03-24T09:59:50.661Z,98866.11
2018-03-24T10:02:19.066Z,98863.89
2018-03-24T10:04:47.530Z,98858.51
2018-03-24T10:07:15.941Z,98860.36
2018-03-24T10:09:44.363Z,98860.36
2018-03-24T10:12:12.824Z,98859.28
2018-03-24T10:14:41.237Z,98852.09
2018-03-24T10:17:09.646Z,98855.31
2018-03-24T10:19:38.102Z,98859.41
2018-03-24T10:22:17.174Z,98853.30
2018-03-24T10:24:45.645Z,98847.81
2018-03-24T10:27:14.078Z,98851.55
2018-03-24T10:29:42.490Z,98855.38
2018-03-24T10:32:10.973Z,98855.19
2018-03-24T10:34:39.402Z,98850.58
2018-03-24T10:37:07.822Z,98846.95
2018-03-24T10:39:36.294Z,98849.48
2018-03-24T10:42:04.733Z,98851.13
2018-03-24T10:44:33.149Z,98843.08
2018-03-24T10:47:01.626Z,98850.08
2018-03-24T10:49:30.050Z,98848.13
2018-03-24T10:51:58.473Z,98851.31
2018-03-24T10:54:26.926Z,98857.97
2018-03-24T10:56:55.332Z,98849.60
2018-03-24T10:59:23.733Z,98847.00
2018-03-24T11:01:52.213Z,98846.60
2018-03-24T11:04:20.618Z,98861.20
2018-03-24T11:06:49.026Z,98859.23
2018-03-24T11:09:17.485Z,98858.70
2018-03-24T11:11:45.894Z,98856.88
2018-03-24T11:14:14.297Z,98856.55
2018-03-24T11:16:42.762Z,98856.77
2018-03-24T11:19:11.174Z,98850.16
2018-03-24T11:21:39.590Z,98854.61
2018-03-24T11:24:08.054Z,98846.77
2018-03-24T11:26:36.469Z,98848.69
2018-03-24T11:29:04.890Z,98841.00
2018-03-24T11:31:33.346Z,98844.69
2018-03-24T11:34:01.763Z,98844.71
2018-03-24T11:36:30.174Z,98839.89
2018-03-24T11:38:58.662Z,98837.19
2018-03-24T11:41:27.085Z,98837.44
2018-03-24T11:43:55.498Z,98835.17
2018-03-24T11:46:23.961Z,98840.40
2018-03-24T11:48:52.373Z,98840.67
2018-03-24T11:51:20.786Z,98833.80
2018-03-24T11:53:49.275Z,98835.15
2018-03-24T11:56:17.718Z,98834.02
2018-03-24T11:58:46.138Z,98837.54
2018-03-24T12:01:14.605Z,98837.53
2018-03-24T12:03:43.054Z,98837.36
2018-03-24T12:06:11.466Z,98837.88
2018-03-24T12:08:39.927Z,98835.78
2018-03-24T12:11:08.338Z,98828.50
2018-03-24T12:13:36.750Z,98829.45
2018-03-24T12:16:05.230Z,98835.08
2018-03-24T12:18:33.657Z,98832.12
2018-03-24T12:21:02.083Z,98832.84
2018-03-24T12:23:30.544Z,98832.59
2018-03-24T12:25:58.958Z,98832.19
2018-03-24T12:28:27.364Z,98839.12
2018-03-24T12:30:55.818Z,98828.48
2018-03-24T12:33:24.234Z,98833.39
2018-03-24T12:35:52.646Z,98830.28
2018-03-24T12:38:21.122Z,98828.91
2018-03-24T12:40:49.539Z,98839.06
2018-03-24T12:43:17.955Z,98830.39
2018-03-24T12:45:46.435Z,98837.34
2018-03-24T12:48:14.854Z,98837.67
2018-03-24T12:50:43.271Z,98833.25
2018-03-24T12:53:11.738Z,98835.60
2018-03-24T12:55:40.151Z,98833.25
2018-03-24T12:58:08.570Z,98834.13
2018-03-24T13:00:37.840Z,98832.92
2018-03-24T13:03:06.261Z,98830.70
2018-03-24T13:05:34.678Z,118368.60
2018-03-24T13:08:03.170Z,98833.39
2018-03-24T13:10:31.595Z,118368.60
2018-03-24T13:13:00.030Z,98827.98
2018-03-24T13:15:28.506Z,118368.60
2018-03-24T13:17:56.933Z,98827.59
2018-03-24T13:20:25.361Z,118368.60
2018-03-24T13:22:53.857Z,118368.60
2018-03-24T13:25:22.278Z,98824.45
2018-03-24T13:27:50.710Z,118368.60
2018-03-24T13:30:19.190Z,98824.85
2018-03-24T13:32:47.620Z,118368.60
2018-03-24T13:35:16.065Z,118368.60
2018-03-24T13:37:44.549Z,118368.60
2018-03-24T13:40:12.990Z,118368.60
2018-03-24T13:42:41.427Z,118368.60
2018-03-24T13:45:09.918Z,118368.60
2018-03-24T13:47:38.354Z,118368.60
2018-03-24T13:50:06.803Z,118368.60
2018-03-24T13:52:35.294Z,118368.60
2018-03-24T13:55:03.770Z,118368.60
2018-03-24T13:57:32.217Z,118368.60
2018-03-24T14:00:01.353Z,118368.60
2018-03-24T14:02:29.793Z,118368.60
2018-03-24T14:04:58.230Z,118368.60
2018-03-24T14:07:26.723Z,118368.60
2018-03-24T14:09:55.162Z,118368.60
2018-03-24T14:12:23.597Z,118368.60
2018-03-24T14:14:52.126Z,118368.60
2018-03-24T14:17:20.561Z,118368.60
2018-03-24T14:19:49.006Z,118368.60
2018-03-24T14:22:17.525Z,118368.60
2018-03-24T14:24:45.962Z,118368.60
2018-03-24T14:27:14.397Z,118368.60
2018-03-24T14:29:42.881Z,118368.60
2018-03-24T14:32:11.321Z,118368.60
2018-03-24T14:34:39.757Z,118368.60
2018-03-24T14:37:08.425Z,118368.60
2018-03-24T14:39:36.866Z,118368.60
2018-03-24T14:42:05.310Z,118368.60
2018-03-24T14:44:33.795Z,118368.60
2018-03-24T14:47:02.241Z,118368.60
2018-03-24T14:49:30.678Z,118368.60
2018-03-24T14:51:59.162Z,118368.60
2018-03-24T14:54:27.647Z,118368.60
2018-03-24T14:56:56.073Z,118368.60
2018-03-24T14:59:24.558Z,118368.60
2018-03-24T15:01:52.993Z,118368.60
2018-03-24T15:04:21.433Z,118368.60
2018-03-24T15:06:49.926Z,118368.60
2018-03-24T15:09:18.370Z,118368.60
2018-03-24T15:11:46.813Z,118368.60
2018-03-24T15:14:15.304Z,118368.60
2018-03-24T15:16:43.746Z,118368.60
2018-03-24T15:19:12.210Z,118368.60
2018-03-24T15:21:40.698Z,118368.60
2018-03-24T15:24:09.138Z,118368.60
2018-03-24T15:26:37.576Z,118368.60
2018-03-24T15:29:17.827Z,118368.60
2018-03-24T15:31:58.182Z,118368.60
2018-03-24T15:34:38.391Z,118368.60
2018-03-24T15:37:06.829Z,118368.60
2018-03-24T15:39:35.261Z,118368.60
2018-03-24T15:42:03.777Z,118368.60
2018-03-24T15:44:32.217Z,118368.60
2018-03-24T15:47:00.659Z,118368.60
2018-03-24T15:49:29.347Z,118368.60
2018-03-24T15:51:57.787Z,118368.60
2018-03-24T15:54:26.226Z,118368.60
2018-03-24T15:56:54.729Z,118368.60
2018-03-24T15:59:23.166Z,118368.60
2018-03-24T16:01:51.614Z,118368.60
2018-03-24T16:04:20.101Z,118368.60
2018-03-24T16:06:48.546Z,118368.60
2018-03-24T16:09:16.990Z,118368.60
2018-03-24T16:11:45.486Z,118368.60
2018-03-24T16:14:13.926Z,118368.60
2018-03-24T16:16:42.358Z,118368.60
2018-03-24T16:19:10.856Z,118368.60
2018-03-24T16:21:39.294Z,118368.60
2018-03-24T16:24:07.839Z,118368.60
2018-03-24T16:26:36.338Z,118368.60
2018-03-24T16:29:04.777Z,118368.60
2018-03-24T16:31:33.210Z,118368.60
2018-03-24T16:34:01.703Z,118368.60
2018-03-24T16:36:30.137Z,118368.60
2018-03-24T16:38:58.581Z,118368.60
2018-03-24T16:41:27.108Z,118368.60
2018-03-24T16:43:55.554Z,118368.60
2018-03-24T16:46:23.996Z,118368.60
2018-03-24T16:48:52.478Z,118368.60
2018-03-24T16:51:20.926Z,118368.60
2018-03-24T16:53:49.370Z,118368.60
2018-03-24T16:56:18.050Z,118368.60
2018-03-24T16:58:46.490Z,118368.60
2018-03-24T17:01:14.930Z,118368.60
2018-03-24T17:03:43.413Z,118368.60
2018-03-24T17:06:11.849Z,118368.60
2018-03-24T17:08:40.289Z,118368.60
2018-03-24T17:11:08.770Z,118368.60
2018-03-24T17:13:37.210Z,118368.60
2018-03-24T17:16:05.705Z,118368.60
2018-03-24T17:18:34.174Z,118368.60
2018-03-24T17:21:02.627Z,118368.60
2018-03-24T17:23:31.066Z,118368.60
2018-03-24T17:25:59.545Z,118368.60
2018-03-24T17:28:27.981Z,118368.60
2018-03-24T17:30:56.464Z,118368.60
2018-03-24T17:33:24.925Z,118368.60
2018-03-24T17:35:53.358Z,118368.60
2018-03-24T17:38:21.811Z,118368.60
2018-03-24T17:40:50.309Z,118368.60
2018-03-24T17:43:18.761Z,118368.60
2018-03-24T17:45:47.213Z,118368.60
2018-03-24T17:48:15.744Z,118368.60
2018-03-24T17:50:44.189Z,118368.60
2018-03-24T17:53:12.708Z,118368.60
2018-03-24T17:55:41.205Z,118368.60
2018-03-24T17:58:09.646Z,118368.60
2018-03-24T18:00:38.085Z,118368.60
2018-03-24T18:03:06.597Z,118368.60
2018-03-24T18:05:35.075Z,118368.60
2018-03-24T18:08:03.542Z,118368.60
2018-03-24T18:10:32.022Z,118368.60
2018-03-24T18:13:00.461Z,118368.60
2018-03-24T18:15:28.898Z,118368.60
2018-03-24T18:17:57.382Z,118368.60
2018-03-24T18:20:25.818Z,118368.60
2018-03-24T18:22:54.269Z,118368.60
2018-03-24T18:25:22.765Z,118368.60
2018-03-24T18:27:51.201Z,118368.60
2018-03-24T18:30:19.641Z,118368.60
2018-03-24T18:32:48.156Z,118368.60
2018-03-24T18:35:16.598Z,118368.60
2018-03-24T18:37:45.035Z,118368.60
2018-03-24T18:40:13.519Z,118368.60
2018-03-24T18:42:41.963Z,118368.60
2018-03-24T18:45:10.432Z,118368.60
2018-03-24T18:47:38.930Z,118368.60
2018-03-24T18:50:07.369Z,118368.60
2018-03-24T18:52:35.806Z,118368.60
2018-03-24T18:55:04.322Z,118368.60
2018-03-24T18:57:32.762Z,118368.60
2018-03-24T19:00:42.430Z,98905.69
2018-03-24T19:03:10.834Z,98906.67
2018-03-24T19:05:39.261Z,98907.50
2018-03-24T19:08:07.756Z,98904.77
2018-03-24T19:10:36.176Z,98910.73
2018-03-24T19:13:04.589Z,98911.89
2018-03-24T19:15:33.061Z,98908.96
2018-03-24T19:18:01.477Z,98910.05
2018-03-24T19:20:29.900Z,98918.53
2018-03-24T19:22:58.369Z,98915.59
2018-03-24T19:25:26.774Z,98922.24
2018-03-24T19:27:55.179Z,98927.89
2018-03-24T19:30:23.645Z,98934.43
2018-03-24T19:32:52.068Z,98925.87
2018-03-24T19:35:20.474Z,98929.28
2018-03-24T19:37:48.921Z,98931.34
2018-03-24T19:40:17.326Z,98932.32
2018-03-24T19:42:45.738Z,98934.68
2018-03-24T19:45:14.234Z,98935.13
2018-03-24T19:47:42.646Z,98940.38
2018-03-24T19:50:11.073Z,98935.95
2018-03-24T19:52:39.544Z,98933.58
2018-03-24T19:55:07.958Z,98934.59
2018-03-24T19:57:36.377Z,98938.70
2018-03-24T20:00:04.891Z,98937.69
2018-03-24T20:02:33.306Z,98941.14
2018-03-24T20:05:01.718Z,98944.94
2018-03-24T20:07:30.170Z,98943.88
2018-03-24T20:09:58.579Z,98946.81
2018-03-24T20:12:26.986Z,98943.80
2018-03-24T20:14:55.462Z,98941.91
2018-03-24T20:17:23.868Z,98943.02
2018-03-24T20:19:53.045Z,98941.02
2018-03-24T20:22:21.489Z,98946.47
2018-03-24T20:24:49.921Z,98952.98
2018-03-24T20:27:18.329Z,98950.43
2018-03-24T20:29:46.794Z,98954.61
2018-03-24T20:32:15.207Z,98953.12
2018-03-24T20:34:43.621Z,98954.42
2018-03-24T20:37:12.076Z,98955.98
2018-03-24T20:39:40.485Z,98956.73
2018-03-24T20:42:08.898Z,98957.84
2018-03-24T20:44:37.393Z,98958.98
2018-03-24T20:47:05.817Z,98964.28
2018-03-24T20:49:34.229Z,98961.45
2018-03-24T20:52:02.690Z,98965.81
2018-03-24T20:54:31.098Z,98966.25
2018-03-24T20:56:59.521Z,98960.67
2018-03-24T20:59:27.986Z,98962.84
2018-03-24T21:01:56.389Z,98960.67
2018-03-24T21:04:24.795Z,98964.39
2018-03-24T21:06:53.266Z,98964.39
2018-03-24T21:09:21.674Z,98960.61
2018-03-24T21:11:50.080Z,98969.52
2018-03-24T21:14:18.554Z,98960.89
2018-03-24T21:16:46.966Z,98971.16
2018-03-24T21:19:15.374Z,98970.58
2018-03-24T21:21:43.857Z,98971.94
2018-03-24T21:24:12.267Z,98976.39
2018-03-24T21:26:40.673Z,98975.62
2018-03-24T21:29:09.129Z,98979.77
2018-03-24T21:31:37.549Z,98982.79
2018-03-24T21:34:05.962Z,98984.53
2018-03-24T21:36:34.426Z,98983.27
2018-03-24T21:39:02.868Z,98983.77
2018-03-24T21:41:31.274Z,98983.37
2018-03-24T21:43:59.726Z,98984.02
2018-03-24T21:46:28.139Z,98982.04
2018-03-24T21:48:56.550Z,98986.58
2018-03-24T21:51:25.093Z,98988.84
2018-03-24T21:53:53.526Z,98991.84
2018-03-24T21:56:21.933Z,98990.83
2018-03-24T21:58:50.412Z,98989.58
2018-03-24T22:01:18.845Z,98986.37
2018-03-24T22:03:47.270Z,98985.09
2018-03-24T22:06:15.716Z,98985.81
2018-03-24T22:08:44.135Z,98980.56
2018-03-24T22:11:12.559Z,98985.47
2018-03-24T22:13:41.026Z,98974.56
2018-03-24T22:16:09.434Z,98974.63
2018-03-24T22:18:37.857Z,98979.42
2018-03-24T22:21:06.559Z,98980.95
2018-03-24T22:23:34.970Z,98981.01
2018-03-24T22:26:03.378Z,98976.48
2018-03-24T22:28:31.829Z,98982.59
2018-03-24T22:31:00.233Z,98985.16
2018-03-24T22:33:28.638Z,98985.80
2018-03-24T22:35:57.088Z,98984.27
2018-03-24T22:38:25.494Z,98985.66
2018-03-24T22:40:53.901Z,98985.41
2018-03-24T22:43:22.367Z,98977.76
2018-03-24T22:45:50.787Z,98986.35
2018-03-24T22:48:19.194Z,98987.67
2018-03-24T22:50:47.871Z,98996.88
2018-03-24T22:53:16.282Z,98992.30
2018-03-24T22:55:44.696Z,98990.91
2018-03-24T22:58:13.145Z,98995.00
2018-03-24T23:00:41.564Z,98982.47
2018-03-24T23:03:09.967Z,98988.37
2018-03-24T23:05:38.447Z,98979.83
2018-03-24T23:08:06.850Z,98988.47
2018-03-24T23:10:35.253Z,98982.97
2018-03-24T23:13:03.702Z,98985.77
2018-03-24T23:15:32.110Z,98981.59
2018-03-24T23:18:00.526Z,98982.35
2018-03-24T23:20:29.008Z,98980.27
2018-03-24T23:22:57.415Z,98980.94
2018-03-24T23:25:25.822Z,98983.20
2018-03-24T23:27:54.294Z,98975.61
2018-03-24T23:30:22.690Z,98970.55
2018-03-24T23:32:51.093Z,98978.10
2018-03-24T23:35:19.549Z,98978.87
2018-03-24T23:37:47.969Z,98980.36
2018-03-24T23:40:16.373Z,98985.41
2018-03-24T23:42:45.038Z,98981.03
2018-03-24T23:45:13.445Z,98984.59
2018-03-24T23:47:41.845Z,98988.13
2018-03-24T23:50:10.300Z,98987.25
2018-03-24T23:52:38.709Z,98989.06
2018-03-24T23:55:07.115Z,98977.06
2018-03-24T23:57:35.581Z,98977.77
